Time;durP1;ratioP1;P1;durP2;ratioP2;P2;SDS_P1;SDS_P2;PMS_P1;PMS_P2;Temp;Humidity;BMP_temperature;BMP_pressure;BME280_temperature;BME280_humidity;BME280_pressure;Samples;Min_cycle;Max_cycle;Signal;HPM_P1;HPM_P2
2021/10/20 00:00:23;;;;;;;11.60;10.32;;;11.10;99.90;;;;;;5001857;28;20042;-66
2021/10/20 00:02:50;;;;;;;11.40;9.13;;;11.10;99.90;;;;;;5002232;28;20134;-67
2021/10/20 00:05:18;;;;;;;13.60;10.25;;;11.10;99.90;;;;;;5001586;28;20176;-65
2021/10/20 00:07:46;;;;;;;16.95;12.18;;;11.10;99.90;;;;;;5002804;28;20076;-67
2021/10/20 00:10:16;;;;;;;19.00;12.88;;;11.10;99.90;;;;;;5004698;28;20049;-66
2021/10/20 00:12:43;;;;;;;15.13;12.07;;;11.10;99.90;;;;;;5003108;28;20084;-67
2021/10/20 00:15:14;;;;;;;16.33;11.85;;;11.10;99.90;;;;;;4995777;28;20077;-65
2021/10/20 00:17:41;;;;;;;21.05;13.60;;;11.10;99.90;;;;;;5002502;28;20131;-66
2021/10/20 00:20:13;;;;;;;18.95;13.40;;;11.20;99.90;;;;;;5001541;28;20326;-66
2021/10/20 00:22:40;;;;;;;19.20;14.32;;;11.20;99.90;;;;;;5000712;28;20467;-67
2021/10/20 00:25:08;;;;;;;18.10;13.55;;;11.20;99.90;;;;;;5001964;28;20112;-65
2021/10/20 00:27:35;;;;;;;20.65;13.82;;;11.20;99.90;;;;;;5003510;28;20104;-68
2021/10/20 00:30:04;;;;;;;23.70;16.40;;;11.20;99.90;;;;;;5014514;28;20541;-66
2021/10/20 00:32:31;;;;;;;24.58;15.48;;;11.20;99.90;;;;;;5000655;28;20050;-67
2021/10/20 00:34:58;;;;;;;23.00;16.38;;;11.20;99.90;;;;;;5003276;28;20121;-66
2021/10/20 00:37:24;;;;;;;21.50;13.70;;;11.20;99.90;;;;;;4999906;28;20124;-65
2021/10/20 00:39:51;;;;;;;24.67;16.48;;;11.30;99.90;;;;;;4999938;28;20180;-67
2021/10/20 00:42:21;;;;;;;22.40;16.88;;;11.30;99.90;;;;;;5002577;28;20042;-66
2021/10/20 00:44:53;;;;;;;21.23;15.60;;;11.30;99.90;;;;;;5013072;28;20149;-66
2021/10/20 00:47:21;;;;;;;20.75;16.10;;;11.30;99.90;;;;;;5003448;28;20054;-66
2021/10/20 00:49:48;;;;;;;22.52;16.13;;;11.30;99.90;;;;;;5001145;28;20133;-65
2021/10/20 00:52:17;;;;;;;26.30;17.60;;;11.30;99.90;;;;;;5002800;28;20078;-65
2021/10/20 00:54:44;;;;;;;25.05;16.55;;;11.30;99.90;;;;;;5002905;28;20077;-66
2021/10/20 00:57:12;;;;;;;24.13;14.73;;;11.30;99.90;;;;;;4995277;28;20464;-67
2021/10/20 00:59:40;;;;;;;22.98;14.90;;;11.30;99.90;;;;;;4998550;28;21410;-67
2021/10/20 01:02:08;;;;;;;17.70;12.82;;;11.30;99.90;;;;;;4998278;28;20069;-65
2021/10/20 01:04:36;;;;;;;16.90;12.23;;;11.40;99.90;;;;;;4995401;28;20144;-65
2021/10/20 01:07:04;;;;;;;18.10;12.32;;;11.40;99.90;;;;;;5001960;28;20765;-65
2021/10/20 01:09:31;;;;;;;15.05;11.57;;;11.40;99.90;;;;;;5002963;28;20053;-67
2021/10/20 01:11:58;;;;;;;15.63;11.38;;;11.40;99.90;;;;;;5002750;28;20077;-66
2021/10/20 01:14:28;;;;;;;17.48;12.13;;;11.40;99.90;;;;;;5004722;28;20529;-71
2021/10/20 01:16:56;;;;;;;13.85;10.15;;;11.40;99.90;;;;;;4998956;28;20074;-65
2021/10/20 01:19:24;;;;;;;14.35;10.25;;;11.40;99.90;;;;;;4995905;28;20116;-68
2021/10/20 01:21:52;;;;;;;16.40;10.43;;;11.40;99.90;;;;;;5010645;28;20053;-66
2021/10/20 01:24:20;;;;;;;13.80;11.05;;;11.40;99.90;;;;;;5001978;28;20134;-66
2021/10/20 01:26:51;;;;;;;14.52;9.88;;;11.40;99.90;;;;;;5003138;28;20099;-69
2021/10/20 01:29:20;;;;;;;13.18;8.40;;;11.40;99.90;;;;;;5001954;28;20081;-65
2021/10/20 01:31:52;;;;;;;12.32;8.68;;;11.40;99.90;;;;;;5003027;28;20112;-67
2021/10/20 01:34:20;;;;;;;11.55;7.63;;;11.40;99.90;;;;;;5009314;28;20046;-67
2021/10/20 01:36:49;;;;;;;9.77;7.03;;;11.40;99.90;;;;;;4999995;28;20123;-67
2021/10/20 01:39:17;;;;;;;8.95;7.38;;;11.40;99.90;;;;;;5005633;28;20108;-65
2021/10/20 01:41:45;;;;;;;8.85;7.57;;;11.40;99.90;;;;;;5006714;28;20089;-67
2021/10/20 01:44:12;;;;;;;8.77;6.78;;;11.40;99.90;;;;;;5009028;28;20474;-66
2021/10/20 01:46:40;;;;;;;8.90;7.57;;;11.40;99.90;;;;;;5006077;28;20062;-67
2021/10/20 01:49:07;;;;;;;8.10;6.47;;;11.50;99.90;;;;;;5005216;28;20137;-65
2021/10/20 01:51:33;;;;;;;7.13;5.38;;;11.40;99.90;;;;;;5011738;28;20072;-67
2021/10/20 01:54:00;;;;;;;7.82;5.50;;;11.40;99.90;;;;;;5007579;28;20124;-66
2021/10/20 01:56:27;;;;;;;4.63;4.15;;;11.40;99.90;;;;;;5004662;28;20140;-65
2021/10/20 01:58:54;;;;;;;4.82;4.32;;;11.40;99.90;;;;;;5002582;28;20096;-66
2021/10/20 02:01:21;;;;;;;4.07;3.30;;;11.40;99.90;;;;;;5010256;28;20683;-68
2021/10/20 02:03:49;;;;;;;4.25;3.40;;;11.50;99.90;;;;;;4990911;28;20119;-66
2021/10/20 02:06:18;;;;;;;3.55;3.25;;;11.50;99.90;;;;;;5006927;28;20054;-65
2021/10/20 02:08:46;;;;;;;3.43;3.13;;;11.50;99.90;;;;;;5005189;28;20058;-67
2021/10/20 02:11:15;;;;;;;4.45;3.63;;;11.50;99.90;;;;;;5006677;28;20199;-66
2021/10/20 02:13:42;;;;;;;4.43;4.03;;;11.50;99.90;;;;;;5003242;28;20078;-69
2021/10/20 02:16:09;;;;;;;3.35;3.05;;;11.60;99.90;;;;;;5011540;28;20069;-66
2021/10/20 02:18:37;;;;;;;4.88;3.70;;;11.50;99.90;;;;;;5005024;28;20046;-67
2021/10/20 02:21:04;;;;;;;3.90;3.60;;;11.50;99.90;;;;;;5010492;28;20558;-65
2021/10/20 02:23:32;;;;;;;5.32;4.38;;;11.60;99.90;;;;;;5009767;28;20120;-65
2021/10/20 02:25:59;;;;;;;6.15;4.45;;;11.50;99.90;;;;;;5012654;28;20080;-65
2021/10/20 02:28:26;;;;;;;5.35;4.60;;;11.60;99.90;;;;;;5007035;28;20046;-67
2021/10/20 02:30:53;;;;;;;5.50;5.03;;;11.60;99.90;;;;;;5006418;28;20133;-65
2021/10/20 02:33:21;;;;;;;6.47;5.25;;;11.60;99.90;;;;;;4998337;28;20136;-69
2021/10/20 02:35:48;;;;;;;7.65;6.47;;;11.60;99.90;;;;;;5019791;28;20103;-66
2021/10/20 02:38:15;;;;;;;11.25;7.22;;;11.60;99.90;;;;;;5006918;28;20140;-65
2021/10/20 02:40:42;;;;;;;12.82;9.55;;;11.60;99.90;;;;;;5003741;28;20042;-67
2021/10/20 02:43:09;;;;;;;12.07;9.23;;;11.70;99.90;;;;;;5012173;28;20176;-65
2021/10/20 02:45:36;;;;;;;21.77;15.98;;;11.60;99.90;;;;;;5013862;28;20121;-66
2021/10/20 02:48:03;;;;;;;35.80;20.60;;;11.60;99.90;;;;;;5010201;28;20360;-66
2021/10/20 02:50:30;;;;;;;38.90;22.25;;;11.60;99.90;;;;;;5011733;28;20789;-66
2021/10/20 02:52:58;;;;;;;39.72;23.65;;;11.60;99.90;;;;;;5001888;28;20054;-67
2021/10/20 02:55:25;;;;;;;44.13;23.38;;;11.70;99.90;;;;;;5006691;28;20100;-67
2021/10/20 02:57:52;;;;;;;42.75;25.70;;;11.60;99.90;;;;;;5013098;28;20091;-67
2021/10/20 03:00:19;;;;;;;41.58;23.63;;;11.60;99.90;;;;;;5006208;28;20048;-66
2021/10/20 03:02:46;;;;;;;41.95;23.95;;;11.70;99.90;;;;;;5003185;28;20514;-65
2021/10/20 03:05:14;;;;;;;44.80;26.50;;;11.70;99.90;;;;;;5005766;28;20506;-67
2021/10/20 03:07:50;;;;;;;40.72;25.20;;;11.70;99.90;;;;;;5017841;28;20053;-67
2021/10/20 03:10:17;;;;;;;42.25;24.02;;;11.70;99.90;;;;;;5010969;28;20095;-66
2021/10/20 03:12:45;;;;;;;31.65;20.48;;;11.70;99.90;;;;;;5007059;28;20652;-66
2021/10/20 03:15:13;;;;;;;34.10;22.17;;;11.70;99.90;;;;;;5013138;28;20131;-65
2021/10/20 03:17:40;;;;;;;35.67;22.20;;;11.80;99.90;;;;;;5009663;28;20468;-66
2021/10/20 03:20:09;;;;;;;37.45;21.05;;;11.80;99.90;;;;;;5002560;28;20112;-67
2021/10/20 03:22:41;;;;;;;34.63;22.33;;;11.80;99.90;;;;;;5003745;28;20089;-65
2021/10/20 03:25:09;;;;;;;28.33;19.48;;;11.80;99.90;;;;;;4996028;28;20398;-66
2021/10/20 03:27:50;;;;;;;30.95;19.52;;;11.80;99.90;;;;;;5003163;28;20116;-66
2021/10/20 03:30:19;;;;;;;27.63;17.98;;;11.80;99.90;;;;;;5005460;28;20042;-69
2021/10/20 03:32:47;;;;;;;24.45;18.27;;;11.80;99.90;;;;;;5000928;28;20109;-65
2021/10/20 03:35:16;;;;;;;27.13;17.10;;;11.90;99.90;;;;;;5005433;28;20069;-66
2021/10/20 03:37:43;;;;;;;29.50;18.50;;;11.90;99.90;;;;;;5004063;28;20100;-68
2021/10/20 03:40:10;;;;;;;27.13;17.48;;;11.90;99.90;;;;;;5006655;28;20156;-66
2021/10/20 03:42:38;;;;;;;28.13;17.35;;;11.90;99.90;;;;;;5001984;28;20061;-67
2021/10/20 03:45:05;;;;;;;25.70;17.83;;;12.00;99.90;;;;;;5003554;28;20144;-67
2021/10/20 03:47:32;;;;;;;22.20;15.57;;;12.00;99.90;;;;;;5005404;28;20231;-65
2021/10/20 03:49:59;;;;;;;27.20;16.15;;;12.00;99.90;;;;;;5004665;28;20080;-65
2021/10/20 03:52:27;;;;;;;27.25;15.02;;;12.00;99.90;;;;;;5003722;28;20050;-67
2021/10/20 03:54:54;;;;;;;22.13;14.63;;;12.00;99.90;;;;;;5001652;28;20046;-66
2021/10/20 03:57:20;;;;;;;21.63;13.80;;;12.00;99.90;;;;;;5006932;28;20137;-65
2021/10/20 03:59:47;;;;;;;22.70;12.63;;;12.00;99.90;;;;;;5003785;28;20089;-67
2021/10/20 04:02:15;;;;;;;16.05;11.48;;;12.10;99.90;;;;;;5001299;28;20074;-66
2021/10/20 04:04:42;;;;;;;19.63;11.68;;;12.00;99.90;;;;;;4995816;28;20093;-69
2021/10/20 04:07:09;;;;;;;21.35;12.98;;;12.00;99.90;;;;;;4998938;28;20038;-67
2021/10/20 04:09:36;;;;;;;16.52;11.60;;;12.10;99.90;;;;;;5001496;28;20117;-69
2021/10/20 04:12:03;;;;;;;19.75;12.05;;;12.10;99.90;;;;;;5004107;28;20042;-66
2021/10/20 04:14:30;;;;;;;16.55;10.88;;;12.20;99.90;;;;;;5005178;28;20195;-67
2021/10/20 04:16:57;;;;;;;16.88;10.60;;;12.20;99.90;;;;;;5003807;28;20049;-66
2021/10/20 04:19:24;;;;;;;18.13;12.68;;;12.20;99.90;;;;;;5005360;28;20108;-70
2021/10/20 04:21:51;;;;;;;16.75;11.35;;;12.20;99.90;;;;;;5004544;28;20766;-68
2021/10/20 04:24:18;;;;;;;19.17;11.23;;;12.20;99.90;;;;;;5001531;28;20049;-65
2021/10/20 04:26:45;;;;;;;15.35;11.60;;;12.30;99.90;;;;;;5000186;28;20476;-68
2021/10/20 04:29:12;;;;;;;12.25;10.20;;;12.20;99.90;;;;;;4998483;28;20104;-69
2021/10/20 04:31:39;;;;;;;14.27;10.18;;;12.20;99.90;;;;;;5001663;28;20065;-65
2021/10/20 04:34:06;;;;;;;16.75;9.40;;;12.30;99.90;;;;;;4999519;28;20112;-67
2021/10/20 04:36:33;;;;;;;22.38;8.88;;;12.30;99.90;;;;;;5004075;28;20081;-69
2021/10/20 04:38:59;;;;;;;14.43;8.75;;;12.40;99.90;;;;;;5002764;28;20053;-70
2021/10/20 04:41:26;;;;;;;12.65;8.23;;;12.40;99.90;;;;;;5001365;28;20141;-66
2021/10/20 04:43:54;;;;;;;13.65;8.88;;;12.40;99.90;;;;;;5003195;28;20038;-68
2021/10/20 04:46:21;;;;;;;13.80;8.52;;;12.50;99.90;;;;;;5013211;28;20065;-66
2021/10/20 04:48:48;;;;;;;15.95;8.93;;;12.50;99.90;;;;;;4999873;28;20045;-65
2021/10/20 04:51:15;;;;;;;13.77;7.05;;;12.50;99.90;;;;;;5003331;28;20061;-68
2021/10/20 04:53:42;;;;;;;15.80;8.75;;;12.40;99.90;;;;;;5002792;28;20149;-70
2021/10/20 04:56:09;;;;;;;11.20;7.30;;;12.40;99.90;;;;;;5003636;28;20104;-65
2021/10/20 04:58:36;;;;;;;14.50;8.85;;;12.50;99.90;;;;;;4998764;28;20460;-66
2021/10/20 05:01:03;;;;;;;12.02;8.98;;;12.50;99.90;;;;;;5000500;28;20092;-65
2021/10/20 05:03:30;;;;;;;13.50;7.47;;;12.50;99.90;;;;;;5004390;28;20141;-67
2021/10/20 05:05:57;;;;;;;14.98;7.70;;;12.50;99.90;;;;;;5003675;28;20076;-70
2021/10/20 05:08:23;;;;;;;11.38;7.13;;;12.60;99.90;;;;;;5002236;28;20073;-65
2021/10/20 05:10:51;;;;;;;13.70;8.23;;;12.60;99.90;;;;;;5001707;28;20128;-68
2021/10/20 05:13:18;;;;;;;11.27;7.40;;;12.60;99.90;;;;;;5002152;28;20065;-67
2021/10/20 05:15:45;;;;;;;15.15;9.30;;;12.60;99.90;;;;;;5001194;28;20068;-69
2021/10/20 05:18:12;;;;;;;16.65;8.93;;;12.70;99.90;;;;;;5004006;28;20049;-65
2021/10/20 05:20:39;;;;;;;14.80;7.95;;;12.70;99.90;;;;;;4998668;28;20070;-71
2021/10/20 05:23:06;;;;;;;12.23;7.28;;;12.80;99.90;;;;;;5004663;28;20069;-67
2021/10/20 05:25:33;;;;;;;15.90;9.48;;;12.80;99.90;;;;;;5005429;28;20065;-66
2021/10/20 05:28:00;;;;;;;14.73;9.52;;;12.80;99.90;;;;;;5002961;28;20050;-66
2021/10/20 05:30:26;;;;;;;12.63;8.55;;;12.80;99.90;;;;;;5002097;28;20470;-65
2021/10/20 05:32:53;;;;;;;13.63;8.82;;;12.80;99.90;;;;;;5002849;28;20157;-65
2021/10/20 05:35:21;;;;;;;17.85;9.13;;;12.80;99.90;;;;;;5004676;28;20058;-68
2021/10/20 05:37:50;;;;;;;18.92;11.25;;;12.80;99.90;;;;;;5002576;28;20125;-66
2021/10/20 05:40:24;;;;;;;18.35;11.23;;;12.80;99.90;;;;;;5000285;28;20116;-70
2021/10/20 05:42:51;;;;;;;18.98;10.35;;;12.80;99.90;;;;;;4999369;28;20452;-65
2021/10/20 05:45:18;;;;;;;21.25;12.00;;;12.80;99.90;;;;;;5000194;28;20096;-74
2021/10/20 05:47:46;;;;;;;20.38;12.23;;;12.80;99.90;;;;;;5002276;28;20108;-67
2021/10/20 05:50:15;;;;;;;15.63;9.88;;;12.80;99.90;;;;;;4997155;28;20424;-65
2021/10/20 05:52:43;;;;;;;18.15;9.20;;;12.80;99.90;;;;;;5000688;28;20466;-66
2021/10/20 05:55:10;;;;;;;19.15;9.90;;;12.90;99.90;;;;;;5000371;28;20137;-66
2021/10/20 05:57:38;;;;;;;21.67;12.70;;;12.90;99.90;;;;;;5002592;28;20049;-65
2021/10/20 06:00:08;;;;;;;20.30;12.32;;;12.90;99.90;;;;;;5003293;28;20096;-67
2021/10/20 06:02:37;;;;;;;19.00;10.02;;;12.90;99.90;;;;;;5003124;28;20561;-66
2021/10/20 06:05:05;;;;;;;20.58;11.65;;;12.90;99.90;;;;;;5002390;28;20049;-66
2021/10/20 06:07:32;;;;;;;22.30;11.43;;;12.90;99.90;;;;;;5004142;28;20785;-66
2021/10/20 06:09:59;;;;;;;22.20;11.13;;;12.90;99.90;;;;;;5004485;28;20124;-65
2021/10/20 06:12:26;;;;;;;19.55;12.35;;;13.00;99.90;;;;;;5001959;28;20037;-66
2021/10/20 06:14:53;;;;;;;24.73;12.25;;;13.00;99.90;;;;;;5001785;28;20139;-66
2021/10/20 06:17:20;;;;;;;18.98;11.38;;;13.00;99.90;;;;;;4999470;28;20113;-65
2021/10/20 06:19:48;;;;;;;22.15;11.80;;;13.00;99.90;;;;;;5005806;28;20137;-66
2021/10/20 06:22:16;;;;;;;26.48;12.70;;;13.00;99.90;;;;;;5006543;28;20108;-66
2021/10/20 06:24:43;;;;;;;19.95;12.32;;;13.10;99.90;;;;;;5003975;28;20092;-65
2021/10/20 06:27:11;;;;;;;21.80;12.70;;;13.10;99.90;;;;;;5003838;28;20202;-65
2021/10/20 06:29:38;;;;;;;19.98;12.05;;;13.10;99.90;;;;;;5002776;28;20116;-65
2021/10/20 06:32:05;;;;;;;22.83;12.23;;;13.10;99.90;;;;;;5005448;28;20081;-67
2021/10/20 06:34:31;;;;;;;24.38;14.43;;;13.20;99.90;;;;;;5005081;28;20088;-68
2021/10/20 06:36:58;;;;;;;22.23;12.13;;;13.20;99.90;;;;;;5007159;28;20134;-67
2021/10/20 06:39:25;;;;;;;25.27;12.18;;;13.20;99.90;;;;;;5005092;28;20046;-66
2021/10/20 06:41:52;;;;;;;22.45;12.50;;;13.30;99.90;;;;;;5004007;28;20132;-71
2021/10/20 06:44:19;;;;;;;24.02;12.02;;;13.20;99.90;;;;;;5003125;28;20077;-66
2021/10/20 06:46:47;;;;;;;20.58;11.23;;;13.20;99.90;;;;;;5002066;28;20113;-68
2021/10/20 06:49:14;;;;;;;19.85;10.90;;;13.20;99.90;;;;;;5002869;28;20053;-68
2021/10/20 06:51:41;;;;;;;21.50;11.55;;;13.20;99.90;;;;;;5003708;28;20053;-67
2021/10/20 06:54:10;;;;;;;26.05;12.68;;;13.30;99.90;;;;;;5000401;28;20042;-66
2021/10/20 06:56:37;;;;;;;22.45;12.70;;;13.20;99.90;;;;;;5000384;28;20171;-68
2021/10/20 06:59:04;;;;;;;25.95;13.73;;;13.20;99.90;;;;;;5004792;28;20077;-66
2021/10/20 07:01:30;;;;;;;19.20;11.68;;;13.30;99.90;;;;;;5005527;28;20073;-66
2021/10/20 07:03:57;;;;;;;20.10;11.60;;;13.30;99.90;;;;;;5006804;28;20526;-66
2021/10/20 07:06:27;;;;;;;21.23;11.70;;;13.30;99.90;;;;;;5006001;28;20407;-67
2021/10/20 07:08:55;;;;;;;20.75;11.45;;;13.30;99.90;;;;;;5004752;28;20074;-70
2021/10/20 07:11:23;;;;;;;17.77;12.02;;;13.20;99.90;;;;;;5002671;28;20096;-69
2021/10/20 07:13:50;;;;;;;18.42;11.18;;;13.30;99.90;;;;;;5003568;28;20100;-66
2021/10/20 07:16:17;;;;;;;14.50;9.68;;;13.30;99.90;;;;;;5006304;28;20053;-68
2021/10/20 07:18:44;;;;;;;16.58;9.93;;;13.30;99.90;;;;;;5007140;28;20044;-66
2021/10/20 07:21:11;;;;;;;19.52;10.70;;;13.30;99.90;;;;;;5003671;28;20141;-65
2021/10/20 07:23:38;;;;;;;15.05;9.80;;;13.30;99.90;;;;;;4986975;28;20058;-65
2021/10/20 07:26:05;;;;;;;17.58;10.10;;;13.40;99.90;;;;;;5007066;28;20077;-65
2021/10/20 07:28:32;;;;;;;15.65;9.15;;;13.40;99.90;;;;;;5000686;28;20086;-65
2021/10/20 07:30:58;;;;;;;11.30;8.43;;;13.50;99.90;;;;;;5003248;28;20068;-70
2021/10/20 07:33:25;;;;;;;14.25;8.43;;;13.50;99.90;;;;;;5004930;28;20076;-67
2021/10/20 07:35:53;;;;;;;13.32;8.27;;;13.50;99.90;;;;;;5003439;28;20047;-66
2021/10/20 07:38:20;;;;;;;12.95;8.98;;;13.50;99.90;;;;;;5005001;28;20500;-69
2021/10/20 07:40:47;;;;;;;11.90;7.78;;;13.50;99.90;;;;;;5008860;28;20042;-66
2021/10/20 07:43:14;;;;;;;11.25;7.22;;;13.50;99.90;;;;;;5005345;28;20046;-68
2021/10/20 07:45:41;;;;;;;12.05;7.35;;;13.40;99.90;;;;;;5004511;28;20046;-65
2021/10/20 07:48:08;;;;;;;11.15;6.38;;;13.40;99.90;;;;;;5004184;28;20223;-65
2021/10/20 07:50:35;;;;;;;9.63;7.13;;;13.40;99.90;;;;;;5004222;28;20042;-67
2021/10/20 07:53:02;;;;;;;12.38;6.80;;;13.50;99.90;;;;;;5004880;28;20169;-70
2021/10/20 07:55:31;;;;;;;6.97;5.32;;;13.50;99.90;;;;;;5006179;28;20081;-67
2021/10/20 07:57:58;;;;;;;11.80;6.55;;;13.50;99.90;;;;;;5006345;28;20065;-66
2021/10/20 08:00:25;;;;;;;7.80;5.07;;;13.60;99.90;;;;;;5003839;28;20041;-66
2021/10/20 08:02:52;;;;;;;7.90;5.70;;;13.60;99.90;;;;;;5001644;28;20072;-66
2021/10/20 08:05:21;;;;;;;10.63;6.03;;;13.60;99.90;;;;;;5005302;28;20052;-65
2021/10/20 08:07:48;;;;;;;8.07;4.97;;;13.70;99.90;;;;;;5011873;28;20081;-66
2021/10/20 08:10:17;;;;;;;9.32;5.63;;;13.70;99.90;;;;;;5012187;28;20053;-65
2021/10/20 08:12:45;;;;;;;9.18;5.03;;;13.70;99.90;;;;;;5008407;28;20054;-65
2021/10/20 08:15:14;;;;;;;10.00;5.95;;;13.80;99.90;;;;;;4998224;28;20053;-68
2021/10/20 08:17:43;;;;;;;7.50;5.38;;;13.80;99.90;;;;;;5004088;28;20073;-66
2021/10/20 08:20:11;;;;;;;7.90;5.03;;;13.80;99.90;;;;;;5002002;28;20137;-65
2021/10/20 08:22:38;;;;;;;8.90;5.32;;;13.90;99.90;;;;;;5003004;28;20119;-67
2021/10/20 08:25:07;;;;;;;8.10;4.20;;;13.80;99.90;;;;;;5003772;28;20050;-66
2021/10/20 08:27:34;;;;;;;8.27;4.85;;;13.80;99.90;;;;;;5004977;28;20467;-65
2021/10/20 08:30:01;;;;;;;10.52;5.50;;;13.80;99.90;;;;;;5004405;28;20046;-66
2021/10/20 08:32:28;;;;;;;8.60;5.03;;;13.90;99.90;;;;;;5003392;28;20057;-65
2021/10/20 08:34:55;;;;;;;12.27;5.65;;;13.90;99.90;;;;;;5000946;28;20069;-69
2021/10/20 08:37:22;;;;;;;8.38;5.72;;;13.90;99.90;;;;;;5004917;28;20081;-67
2021/10/20 08:39:48;;;;;;;7.13;5.60;;;13.90;99.90;;;;;;5002954;28;20406;-66
2021/10/20 08:42:16;;;;;;;7.70;5.30;;;13.90;99.90;;;;;;5000874;28;20113;-69
2021/10/20 08:45:03;;;;;;;7.50;5.35;;;13.90;99.90;;;;;;4999700;28;20153;-67
2021/10/20 08:47:30;;;;;;;7.75;5.28;;;13.90;99.90;;;;;;5002164;28;20120;-68
2021/10/20 08:49:57;;;;;;;11.18;5.55;;;14.00;99.90;;;;;;5004278;28;20069;-68
2021/10/20 08:52:24;;;;;;;7.85;6.22;;;14.00;99.90;;;;;;5003271;28;20053;-65
2021/10/20 08:54:53;;;;;;;8.15;5.18;;;14.00;99.90;;;;;;5000298;28;20120;-65
2021/10/20 08:57:20;;;;;;;8.63;5.53;;;14.00;99.90;;;;;;5005562;28;20140;-68
2021/10/20 08:59:47;;;;;;;9.30;6.43;;;14.00;99.90;;;;;;5008207;28;20463;-65
2021/10/20 09:02:14;;;;;;;9.23;6.15;;;14.00;99.90;;;;;;5003254;28;20085;-66
2021/10/20 09:04:43;;;;;;;7.95;6.20;;;13.90;99.90;;;;;;5002514;28;20042;-66
2021/10/20 09:07:14;;;;;;;8.32;5.22;;;14.00;99.90;;;;;;5002643;28;20378;-65
2021/10/20 09:09:41;;;;;;;10.07;7.72;;;13.90;99.90;;;;;;5000484;28;20046;-67
2021/10/20 09:12:08;;;;;;;9.63;6.55;;;13.90;99.90;;;;;;5002531;28;20046;-70
2021/10/20 09:14:35;;;;;;;10.43;7.40;;;13.90;99.90;;;;;;4999957;28;20479;-69
2021/10/20 09:17:04;;;;;;;14.73;8.57;;;13.90;99.90;;;;;;5003940;28;20646;-66
2021/10/20 09:19:34;;;;;;;10.52;7.88;;;13.90;99.90;;;;;;5003550;28;20041;-67
2021/10/20 09:22:03;;;;;;;12.40;7.32;;;13.90;99.90;;;;;;4997178;28;20480;-68
2021/10/20 09:24:39;;;;;;;12.75;9.45;;;13.90;99.90;;;;;;5003808;28;20054;-67
2021/10/20 09:27:24;;;;;;;9.40;6.85;;;13.90;99.90;;;;;;5002161;28;20068;-66
2021/10/20 09:30:13;;;;;;;13.27;8.18;;;13.90;99.90;;;;;;4997327;28;20069;-65
2021/10/20 09:32:41;;;;;;;14.60;8.57;;;13.90;99.90;;;;;;4999463;28;20108;-68
2021/10/20 09:35:12;;;;;;;16.80;9.20;;;13.90;99.90;;;;;;5001976;28;20096;-68
2021/10/20 09:37:40;;;;;;;13.50;8.70;;;13.90;99.90;;;;;;4999333;28;20050;-65
2021/10/20 09:40:10;;;;;;;15.18;9.07;;;14.00;99.90;;;;;;5003660;28;20100;-67
2021/10/20 09:42:45;;;;;;;20.50;11.70;;;14.00;99.90;;;;;;5004086;28;20047;-67
2021/10/20 09:45:15;;;;;;;17.70;11.63;;;14.00;99.90;;;;;;5003101;28;20050;-66
2021/10/20 09:47:42;;;;;;;19.88;11.93;;;14.10;99.90;;;;;;5002121;28;20046;-66
2021/10/20 09:50:11;;;;;;;21.23;12.63;;;14.10;99.90;;;;;;5010850;28;20523;-65
2021/10/20 09:52:44;;;;;;;20.55;13.07;;;14.10;99.90;;;;;;5005824;28;20073;-67
2021/10/20 09:55:25;;;;;;;21.85;13.65;;;14.10;99.90;;;;;;5005772;28;20496;-66
2021/10/20 09:58:03;;;;;;;26.45;15.45;;;14.10;99.90;;;;;;5002025;28;20097;-65
2021/10/20 10:00:31;;;;;;;31.73;17.00;;;14.10;99.90;;;;;;5003744;28;20049;-66
2021/10/20 10:02:57;;;;;;;27.08;16.52;;;14.00;99.90;;;;;;5003966;28;20045;-66
2021/10/20 10:05:27;;;;;;;26.88;15.75;;;14.00;99.90;;;;;;5006978;28;20561;-71
2021/10/20 10:07:54;;;;;;;26.58;18.00;;;14.00;99.90;;;;;;5002749;28;20111;-66
2021/10/20 10:10:22;;;;;;;31.88;18.92;;;14.00;99.90;;;;;;5005400;28;20408;-65
2021/10/20 10:13:04;;;;;;;33.33;20.38;;;14.00;99.90;;;;;;5004840;28;20553;-68
2021/10/20 10:15:37;;;;;;;34.03;20.35;;;14.00;99.90;;;;;;5008031;28;20070;-65
2021/10/20 10:18:06;;;;;;;37.50;20.98;;;13.90;99.90;;;;;;5005370;28;20072;-68
2021/10/20 10:20:42;;;;;;;35.17;21.10;;;13.90;99.90;;;;;;5005645;28;20054;-65
2021/10/20 10:23:21;;;;;;;36.50;21.20;;;13.90;99.90;;;;;;5005842;28;20091;-67
2021/10/20 10:26:01;;;;;;;39.03;21.35;;;13.90;99.90;;;;;;5002199;28;20049;-68
2021/10/20 10:28:33;;;;;;;39.55;22.70;;;13.90;99.90;;;;;;5003885;28;20470;-70
2021/10/20 10:31:07;;;;;;;36.90;22.08;;;13.90;99.90;;;;;;5002511;28;20061;-65
2021/10/20 10:33:49;;;;;;;27.02;16.30;;;13.90;99.90;;;;;;5002721;28;20388;-67
2021/10/20 10:36:20;;;;;;;31.92;20.95;;;13.90;99.90;;;;;;5003348;28;20053;-68
2021/10/20 10:39:07;;;;;;;30.40;18.65;;;13.90;99.90;;;;;;5001173;28;20060;-69
2021/10/20 10:41:51;;;;;;;34.95;18.83;;;13.90;99.90;;;;;;5004883;28;20084;-65
2021/10/20 10:44:45;;;;;;;32.95;19.40;;;13.80;99.90;;;;;;4996670;28;20080;-68
2021/10/20 10:47:19;;;;;;;35.85;23.20;;;13.80;99.90;;;;;;4987560;28;20046;-65
2021/10/20 10:49:55;;;;;;;31.88;21.15;;;13.80;99.90;;;;;;5005956;28;20127;-68
2021/10/20 10:52:33;;;;;;;35.92;22.38;;;13.80;99.90;;;;;;5007091;28;20584;-67
2021/10/20 10:55:06;;;;;;;34.67;24.02;;;13.80;99.90;;;;;;4999633;28;20045;-66
2021/10/20 10:57:42;;;;;;;36.97;24.30;;;13.80;99.90;;;;;;5005479;28;20073;-67
2021/10/20 11:00:18;;;;;;;43.67;26.40;;;13.80;99.90;;;;;;5008570;28;20481;-68
2021/10/20 11:02:55;;;;;;;39.72;25.02;;;13.80;99.90;;;;;;5003947;28;20049;-66
2021/10/20 11:05:22;;;;;;;32.50;21.35;;;13.80;99.90;;;;;;5003245;28;20042;-66
2021/10/20 11:07:52;;;;;;;33.78;21.40;;;13.70;99.90;;;;;;5012125;28;20067;-65
2021/10/20 11:10:19;;;;;;;25.10;18.73;;;13.70;99.90;;;;;;5007485;28;20077;-67
2021/10/20 11:12:48;;;;;;;26.42;18.38;;;13.70;99.90;;;;;;4995682;28;20108;-69
2021/10/20 11:15:17;;;;;;;26.45;17.55;;;13.60;99.90;;;;;;5004845;28;20074;-68
2021/10/20 11:17:44;;;;;;;24.98;16.02;;;13.60;99.90;;;;;;5002192;28;20716;-66
2021/10/20 11:20:16;;;;;;;19.83;14.05;;;13.60;99.90;;;;;;5005059;28;20077;-70
2021/10/20 11:22:46;;;;;;;20.15;14.15;;;13.50;99.90;;;;;;5004556;28;20050;-68
2021/10/20 11:25:14;;;;;;;14.18;12.52;;;13.50;99.90;;;;;;5001946;28;20072;-65
2021/10/20 11:27:52;;;;;;;13.02;10.05;;;13.50;99.90;;;;;;5003655;28;20053;-65
2021/10/20 11:30:25;;;;;;;15.48;12.38;;;13.50;99.90;;;;;;4997024;28;20046;-65
2021/10/20 11:32:52;;;;;;;20.10;13.95;;;13.50;99.90;;;;;;4994134;28;20124;-65
2021/10/20 11:35:23;;;;;;;23.60;15.80;;;13.50;99.90;;;;;;4999841;28;20043;-65
2021/10/20 11:38:07;;;;;;;23.58;15.60;;;13.40;99.90;;;;;;5004184;28;20118;-65
2021/10/20 11:40:34;;;;;;;23.73;15.70;;;13.50;99.90;;;;;;5008868;28;20037;-65
2021/10/20 11:43:01;;;;;;;22.10;15.18;;;13.50;99.90;;;;;;5004994;28;20092;-68
2021/10/20 11:45:30;;;;;;;25.88;17.35;;;13.40;99.90;;;;;;5007377;28;20129;-66
2021/10/20 11:48:02;;;;;;;24.42;18.33;;;13.40;99.90;;;;;;5017357;28;20054;-67
2021/10/20 11:50:30;;;;;;;30.08;21.52;;;13.40;99.90;;;;;;5006099;28;20050;-66
2021/10/20 11:53:04;;;;;;;30.90;23.35;;;13.40;99.90;;;;;;4997840;28;20133;-67
2021/10/20 11:55:32;;;;;;;31.58;22.48;;;13.30;99.90;;;;;;5004155;28;20093;-67
2021/10/20 11:57:59;;;;;;;36.35;23.73;;;13.40;99.90;;;;;;5017926;28;20041;-67
2021/10/20 12:00:26;;;;;;;37.75;23.30;;;13.30;99.90;;;;;;5002955;28;20041;-66
2021/10/20 12:02:53;;;;;;;35.60;24.50;;;13.40;99.90;;;;;;5001558;28;20137;-65
2021/10/20 12:05:20;;;;;;;35.83;25.85;;;13.40;99.90;;;;;;5006517;28;20115;-69
2021/10/20 12:07:48;;;;;;;43.15;26.95;;;13.40;99.90;;;;;;5006470;28;20081;-65
2021/10/20 12:10:18;;;;;;;43.50;27.17;;;13.30;99.90;;;;;;5002790;28;20049;-66
2021/10/20 12:12:47;;;;;;;44.95;27.63;;;13.40;99.90;;;;;;5003042;28;20104;-68
2021/10/20 12:15:20;;;;;;;43.13;28.05;;;13.40;99.90;;;;;;4995448;28;20077;-67
2021/10/20 12:17:49;;;;;;;43.63;29.85;;;13.30;99.90;;;;;;4995946;28;20085;-65
2021/10/20 12:20:18;;;;;;;41.92;28.50;;;13.30;99.90;;;;;;5002835;28;20062;-67
2021/10/20 12:22:49;;;;;;;52.63;29.70;;;13.20;99.90;;;;;;5003589;28;20042;-68
2021/10/20 12:25:18;;;;;;;47.72;31.38;;;13.30;99.90;;;;;;5003075;28;20133;-69
2021/10/20 12:27:45;;;;;;;48.05;31.05;;;13.30;99.90;;;;;;5002141;28;20061;-66
2021/10/20 12:30:13;;;;;;;46.80;28.92;;;13.30;99.90;;;;;;5004312;28;20146;-67
2021/10/20 12:32:40;;;;;;;42.35;31.48;;;13.30;99.90;;;;;;5015811;28;20122;-66
2021/10/20 12:35:13;;;;;;;45.67;28.80;;;13.20;99.90;;;;;;5001158;28;20124;-68
2021/10/20 12:37:44;;;;;;;48.33;30.48;;;13.10;99.90;;;;;;5005510;28;20141;-65
2021/10/20 12:40:17;;;;;;;44.95;27.60;;;13.10;99.90;;;;;;5003318;28;20173;-67